sensor_id;sensor_type;location;lat;lon;timestamp;pressure;altitude;pressure_sealevel;temperature;humidity
10093;BME280;5085;48.092;11.484;2023-02-18T00:00:18;96015.91;;;10.97;100.00
10093;BME280;5085;48.092;11.484;2023-02-18T00:02:45;96019.09;;;10.94;100.00
10093;BME280;5085;48.092;11.484;2023-02-18T00:05:12;96017.16;;;10.90;100.00
10093;BME280;5085;48.092;11.484;2023-02-18T00:07:39;96018.25;;;10.89;100.00
10093;BME280;5085;48.092;11.484;2023-02-18T00:10:10;96020.63;;;10.85;100.00
10093;BME280;5085;48.092;11.484;2023-02-18T00:12:37;96014.94;;;10.82;100.00
10093;BME280;5085;48.092;11.484;2023-02-18T00:15:03;96022.19;;;10.81;100.00
10093;BME280;5085;48.092;11.484;2023-02-18T00:17:29;96008.47;;;10.83;100.00
10093;BME280;5085;48.092;11.484;2023-02-18T00:19:55;96004.66;;;10.79;100.00
10093;BME280;5085;48.092;11.484;2023-02-18T00:22:22;96007.88;;;10.75;100.00
10093;BME280;5085;48.092;11.484;2023-02-18T00:24:49;95990.91;;;10.75;100.00
10093;BME280;5085;48.092;11.484;2023-02-18T00:27:15;95985.75;;;10.73;100.00
10093;BME280;5085;48.092;11.484;2023-02-18T00:29:41;95983.59;;;10.70;100.00
10093;BME280;5085;48.092;11.484;2023-02-18T00:32:07;95982.19;;;10.68;100.00
10093;BME280;5085;48.092;11.484;2023-02-18T00:34:35;95979.50;;;10.68;100.00
10093;BME280;5085;48.092;11.484;2023-02-18T00:37:03;95971.13;;;10.64;100.00
10093;BME280;5085;48.092;11.484;2023-02-18T00:39:29;95977.00;;;10.61;100.00
10093;BME280;5085;48.092;11.484;2023-02-18T00:41:56;95978.56;;;10.57;100.00
10093;BME280;5085;48.092;11.484;2023-02-18T00:44:22;95988.00;;;10.55;100.00
10093;BME280;5085;48.092;11.484;2023-02-18T00:46:48;95992.78;;;10.52;100.00
10093;BME280;5085;48.092;11.484;2023-02-18T00:49:15;95986.59;;;10.52;100.00
10093;BME280;5085;48.092;11.484;2023-02-18T00:51:41;95984.97;;;10.51;100.00
10093;BME280;5085;48.092;11.484;2023-02-18T00:54:08;95982.56;;;10.49;100.00
10093;BME280;5085;48.092;11.484;2023-02-18T00:56:34;95982.78;;;10.48;100.00
10093;BME280;5085;48.092;11.484;2023-02-18T00:59:01;95985.75;;;10.46;100.00
10093;BME280;5085;48.092;11.484;2023-02-18T01:01:27;95994.38;;;10.48;100.00
10093;BME280;5085;48.092;11.484;2023-02-18T01:03:53;95985.28;;;10.55;100.00
10093;BME280;5085;48.092;11.484;2023-02-18T01:06:19;95992.94;;;10.63;100.00
10093;BME280;5085;48.092;11.484;2023-02-18T01:08:47;95986.78;;;10.67;100.00
10093;BME280;5085;48.092;11.484;2023-02-18T01:11:13;95980.34;;;10.73;100.00
10093;BME280;5085;48.092;11.484;2023-02-18T01:13:40;95982.28;;;10.78;100.00
10093;BME280;5085;48.092;11.484;2023-02-18T01:16:07;95973.16;;;10.79;100.00
10093;BME280;5085;48.092;11.484;2023-02-18T01:18:33;95979.09;;;10.81;100.00
10093;BME280;5085;48.092;11.484;2023-02-18T01:20:59;95986.38;;;10.81;100.00
10093;BME280;5085;48.092;11.484;2023-02-18T01:23:25;95966.13;;;10.78;100.00
10093;BME280;5085;48.092;11.484;2023-02-18T01:25:51;95968.00;;;10.77;100.00
10093;BME280;5085;48.092;11.484;2023-02-18T01:28:18;95970.97;;;10.76;100.00
10093;BME280;5085;48.092;11.484;2023-02-18T01:30:45;95958.81;;;10.73;100.00
10093;BME280;5085;48.092;11.484;2023-02-18T01:33:12;95966.56;;;10.70;100.00
10093;BME280;5085;48.092;11.484;2023-02-18T01:35:39;95957.16;;;10.67;100.00
10093;BME280;5085;48.092;11.484;2023-02-18T01:38:05;95958.44;;;10.65;100.00
10093;BME280;5085;48.092;11.484;2023-02-18T01:40:31;95940.09;;;10.62;100.00
10093;BME280;5085;48.092;11.484;2023-02-18T01:42:58;95955.97;;;10.58;100.00
10093;BME280;5085;48.092;11.484;2023-02-18T01:50:29;95945.84;;;10.43;100.00
10093;BME280;5085;48.092;11.484;2023-02-18T01:52:56;95951.00;;;10.45;100.00
10093;BME280;5085;48.092;11.484;2023-02-18T01:55:22;95955.84;;;10.48;100.00
10093;BME280;5085;48.092;11.484;2023-02-18T01:57:48;95949.72;;;10.52;100.00
10093;BME280;5085;48.092;11.484;2023-02-18T02:00:17;95945.72;;;10.55;100.00
10093;BME280;5085;48.092;11.484;2023-02-18T02:02:48;95943.31;;;10.59;100.00
10093;BME280;5085;48.092;11.484;2023-02-18T02:05:15;95948.19;;;10.62;100.00
10093;BME280;5085;48.092;11.484;2023-02-18T02:07:44;95942.06;;;10.66;100.00
10093;BME280;5085;48.092;11.484;2023-02-18T02:10:12;95943.41;;;10.69;100.00
10093;BME280;5085;48.092;11.484;2023-02-18T02:13:11;95950.72;;;10.73;100.00
10093;BME280;5085;48.092;11.484;2023-02-18T02:15:46;95941.84;;;10.73;100.00
10093;BME280;5085;48.092;11.484;2023-02-18T02:18:30;95940.75;;;10.74;100.00
10093;BME280;5085;48.092;11.484;2023-02-18T02:26:45;95926.78;;;10.77;100.00
10093;BME280;5085;48.092;11.484;2023-02-18T02:32:54;95927.63;;;10.83;100.00
10093;BME280;5085;48.092;11.484;2023-02-18T02:35:32;95921.19;;;10.84;100.00
10093;BME280;5085;48.092;11.484;2023-02-18T02:46:17;95920.97;;;10.90;100.00
10093;BME280;5085;48.092;11.484;2023-02-18T02:48:50;95917.47;;;10.90;100.00
10093;BME280;5085;48.092;11.484;2023-02-18T02:54:18;95908.56;;;10.89;100.00
10093;BME280;5085;48.092;11.484;2023-02-18T02:56:45;95908.00;;;10.87;100.00
10093;BME280;5085;48.092;11.484;2023-02-18T02:59:15;95909.38;;;10.90;100.00
10093;BME280;5085;48.092;11.484;2023-02-18T03:02:03;95905.31;;;10.87;100.00
10093;BME280;5085;48.092;11.484;2023-02-18T03:13:01;95892.84;;;10.76;100.00
10093;BME280;5085;48.092;11.484;2023-02-18T03:16:00;95892.81;;;10.71;100.00
10093;BME280;5085;48.092;11.484;2023-02-18T03:21:07;95900.00;;;10.65;100.00
10093;BME280;5085;48.092;11.484;2023-02-18T03:23:45;95906.19;;;10.66;100.00
10093;BME280;5085;48.092;11.484;2023-02-18T03:26:15;95906.78;;;10.68;100.00
10093;BME280;5085;48.092;11.484;2023-02-18T03:28:44;95899.81;;;10.72;100.00
10093;BME280;5085;48.092;11.484;2023-02-18T03:31:15;95891.47;;;10.73;100.00
10093;BME280;5085;48.092;11.484;2023-02-18T03:33:52;95892.03;;;10.75;100.00
10093;BME280;5085;48.092;11.484;2023-02-18T03:36:20;95899.34;;;10.80;100.00
10093;BME280;5085;48.092;11.484;2023-02-18T03:38:53;95895.56;;;10.81;100.00
10093;BME280;5085;48.092;11.484;2023-02-18T03:41:21;95895.56;;;10.81;100.00
10093;BME280;5085;48.092;11.484;2023-02-18T03:43:49;95892.88;;;10.81;100.00
10093;BME280;5085;48.092;11.484;2023-02-18T03:46:15;95887.22;;;10.83;100.00
10093;BME280;5085;48.092;11.484;2023-02-18T03:48:43;95897.19;;;10.82;100.00
10093;BME280;5085;48.092;11.484;2023-02-18T03:51:09;95894.75;;;10.81;100.00
10093;BME280;5085;48.092;11.484;2023-02-18T03:53:35;95900.16;;;10.81;100.00
10093;BME280;5085;48.092;11.484;2023-02-18T03:56:01;95898.78;;;10.78;100.00
10093;BME280;5085;48.092;11.484;2023-02-18T03:58:27;95889.88;;;10.77;100.00
10093;BME280;5085;48.092;11.484;2023-02-18T04:00:54;95890.16;;;10.76;100.00
10093;BME280;5085;48.092;11.484;2023-02-18T04:03:20;95895.53;;;10.76;100.00
10093;BME280;5085;48.092;11.484;2023-02-18T04:05:46;95900.34;;;10.74;100.00
10093;BME280;5085;48.092;11.484;2023-02-18T04:08:12;95892.53;;;10.72;100.00
10093;BME280;5085;48.092;11.484;2023-02-18T04:10:38;95892.00;;;10.70;100.00
10093;BME280;5085;48.092;11.484;2023-02-18T04:13:05;95896.53;;;10.70;100.00
10093;BME280;5085;48.092;11.484;2023-02-18T04:15:31;95894.69;;;10.70;100.00
10093;BME280;5085;48.092;11.484;2023-02-18T04:17:57;95904.38;;;10.71;100.00
10093;BME280;5085;48.092;11.484;2023-02-18T04:20:23;95904.63;;;10.70;100.00
10093;BME280;5085;48.092;11.484;2023-02-18T04:22:49;95896.81;;;10.68;100.00
10093;BME280;5085;48.092;11.484;2023-02-18T04:25:16;95895.44;;;10.66;100.00
10093;BME280;5085;48.092;11.484;2023-02-18T04:27:42;95882.81;;;10.66;100.00
10093;BME280;5085;48.092;11.484;2023-02-18T04:30:08;95877.66;;;10.65;100.00
10093;BME280;5085;48.092;11.484;2023-02-18T04:32:34;95888.44;;;10.65;100.00
10093;BME280;5085;48.092;11.484;2023-02-18T04:35:00;95896.50;;;10.65;100.00
10093;BME280;5085;48.092;11.484;2023-02-18T04:37:26;95891.63;;;10.62;100.00
10093;BME280;5085;48.092;11.484;2023-02-18T04:39:52;95901.59;;;10.61;100.00
10093;BME280;5085;48.092;11.484;2023-02-18T04:42:18;95903.47;;;10.61;100.00
10093;BME280;5085;48.092;11.484;2023-02-18T04:44:44;95905.34;;;10.60;100.00
10093;BME280;5085;48.092;11.484;2023-02-18T04:47:10;95906.97;;;10.61;100.00
10093;BME280;5085;48.092;11.484;2023-02-18T04:49:36;95906.97;;;10.61;100.00
10093;BME280;5085;48.092;11.484;2023-02-18T04:52:02;95904.03;;;10.63;100.00
10093;BME280;5085;48.092;11.484;2023-02-18T04:54:28;95898.66;;;10.63;100.00
10093;BME280;5085;48.092;11.484;2023-02-18T04:56:54;95900.78;;;10.61;100.00
10093;BME280;5085;48.092;11.484;2023-02-18T04:59:20;95904.81;;;10.58;100.00
10093;BME280;5085;48.092;11.484;2023-02-18T05:01:46;95908.31;;;10.59;100.00
10093;BME280;5085;48.092;11.484;2023-02-18T05:04:13;95910.44;;;10.57;100.00
10093;BME280;5085;48.092;11.484;2023-02-18T05:06:39;95912.06;;;10.58;100.00
10093;BME280;5085;48.092;11.484;2023-02-18T05:09:05;95907.50;;;10.58;100.00
10093;BME280;5085;48.092;11.484;2023-02-18T05:11:31;95906.94;;;10.56;100.00
10093;BME280;5085;48.092;11.484;2023-02-18T05:13:57;95903.16;;;10.57;100.00
10093;BME280;5085;48.092;11.484;2023-02-18T05:16:23;95893.22;;;10.58;100.00
10093;BME280;5085;48.092;11.484;2023-02-18T05:18:49;95887.56;;;10.59;100.00
10093;BME280;5085;48.092;11.484;2023-02-18T05:21:15;95885.16;;;10.58;100.00
10093;BME280;5085;48.092;11.484;2023-02-18T05:23:41;95895.91;;;10.58;100.00
10093;BME280;5085;48.092;11.484;2023-02-18T05:26:07;95887.31;;;10.61;100.00
10093;BME280;5085;48.092;11.484;2023-02-18T05:28:33;95875.47;;;10.62;100.00
10093;BME280;5085;48.092;11.484;2023-02-18T05:30:59;95884.63;;;10.61;100.00
10093;BME280;5085;48.092;11.484;2023-02-18T05:33:25;95879.22;;;10.61;100.00
10093;BME280;5085;48.092;11.484;2023-02-18T05:35:51;95882.50;;;10.63;100.00
10093;BME280;5085;48.092;11.484;2023-02-18T05:38:18;95886.00;;;10.63;100.00
10093;BME280;5085;48.092;11.484;2023-02-18T05:40:44;95895.44;;;10.66;100.00
10093;BME280;5085;48.092;11.484;2023-02-18T05:43:10;95882.25;;;10.69;100.00
10093;BME280;5085;48.092;11.484;2023-02-18T05:45:36;95877.69;;;10.70;100.00
10093;BME280;5085;48.092;11.484;2023-02-18T05:48:02;95889.03;;;10.72;100.00
10093;BME280;5085;48.092;11.484;2023-02-18T05:50:28;95893.03;;;10.69;100.00
10093;BME280;5085;48.092;11.484;2023-02-18T05:52:54;95892.53;;;10.72;100.00
10093;BME280;5085;48.092;11.484;2023-02-18T05:55:21;95882.56;;;10.73;100.00
10093;BME280;5085;48.092;11.484;2023-02-18T05:57:47;95885.25;;;10.73;100.00
10093;BME280;5085;48.092;11.484;2023-02-18T06:00:13;95885.00;;;10.74;100.00
10093;BME280;5085;48.092;11.484;2023-02-18T06:02:39;95873.69;;;10.72;100.00
10093;BME280;5085;48.092;11.484;2023-02-18T06:05:06;95882.56;;;10.73;100.00
10093;BME280;5085;48.092;11.484;2023-02-18T06:07:32;95878.25;;;10.72;100.00
10093;BME280;5085;48.092;11.484;2023-02-18T06:09:58;95879.88;;;10.73;100.00
10093;BME280;5085;48.092;11.484;2023-02-18T06:12:24;95898.72;;;10.73;100.00
10093;BME280;5085;48.092;11.484;2023-02-18T06:14:50;95886.06;;;10.73;100.00
10093;BME280;5085;48.092;11.484;2023-02-18T06:17:16;95886.06;;;10.73;100.00
10093;BME280;5085;48.092;11.484;2023-02-18T06:19:44;95899.31;;;10.75;100.00
10093;BME280;5085;48.092;11.484;2023-02-18T06:22:10;95896.63;;;10.75;100.00
10093;BME280;5085;48.092;11.484;2023-02-18T06:24:37;95897.41;;;10.75;100.00
10093;BME280;5085;48.092;11.484;2023-02-18T06:27:03;95891.22;;;10.75;100.00
10093;BME280;5085;48.092;11.484;2023-02-18T06:29:29;95895.53;;;10.76;100.00
10093;BME280;5085;48.092;11.484;2023-02-18T06:31:57;95889.56;;;10.74;100.00
10093;BME280;5085;48.092;11.484;2023-02-18T06:34:24;95906.31;;;10.76;100.00
10093;BME280;5085;48.092;11.484;2023-02-18T06:36:50;95901.47;;;10.78;100.00
10093;BME280;5085;48.092;11.484;2023-02-18T06:39:16;95898.78;;;10.78;100.00
10093;BME280;5085;48.092;11.484;2023-02-18T06:41:42;95911.19;;;10.79;100.00
10093;BME280;5085;48.092;11.484;2023-02-18T06:44:08;95911.75;;;10.81;100.00
10093;BME280;5085;48.092;11.484;2023-02-18T06:46:36;95903.16;;;10.84;100.00
10093;BME280;5085;48.092;11.484;2023-02-18T06:49:02;95897.75;;;10.84;100.00
10093;BME280;5085;48.092;11.484;2023-02-18T06:51:29;95912.34;;;10.88;100.00
10093;BME280;5085;48.092;11.484;2023-02-18T06:53:55;95895.63;;;10.91;100.00
10093;BME280;5085;48.092;11.484;2023-02-18T06:56:21;95900.28;;;10.96;100.00
10093;BME280;5085;48.092;11.484;2023-02-18T06:58:47;95897.06;;;10.99;100.00
10093;BME280;5085;48.092;11.484;2023-02-18T07:01:13;95907.06;;;11.04;100.00
10093;BME280;5085;48.092;11.484;2023-02-18T07:03:39;95895.78;;;11.07;100.00
10093;BME280;5085;48.092;11.484;2023-02-18T07:06:05;95910.09;;;11.12;100.00
10093;BME280;5085;48.092;11.484;2023-02-18T07:08:31;95897.69;;;11.11;100.00
10093;BME280;5085;48.092;11.484;2023-02-18T07:11:01;95905.50;;;11.13;100.00
10093;BME280;5085;48.092;11.484;2023-02-18T07:13:27;95901.22;;;11.17;100.00
10093;BME280;5085;48.092;11.484;2023-02-18T07:15:53;95903.69;;;11.18;100.00
10093;BME280;5085;48.092;11.484;2023-02-18T07:18:19;95885.31;;;11.15;100.00
10093;BME280;5085;48.092;11.484;2023-02-18T07:20:45;95895.56;;;11.13;100.00
10093;BME280;5085;48.092;11.484;2023-02-18T07:23:11;95893.91;;;11.12;100.00
10093;BME280;5085;48.092;11.484;2023-02-18T07:25:37;95903.09;;;11.11;100.00
10093;BME280;5085;48.092;11.484;2023-02-18T07:28:03;95904.44;;;11.09;100.00
10093;BME280;5085;48.092;11.484;2023-02-18T07:30:29;95900.66;;;11.10;100.00
10093;BME280;5085;48.092;11.484;2023-02-18T07:32:56;95903.84;;;11.07;100.00
10093;BME280;5085;48.092;11.484;2023-02-18T07:35:22;95902.78;;;11.08;100.00
10093;BME280;5085;48.092;11.484;2023-02-18T07:37:49;95909.25;;;11.07;100.00
10093;BME280;5085;48.092;11.484;2023-02-18T07:40:18;95903.84;;;11.07;100.00
10093;BME280;5085;48.092;11.484;2023-02-18T07:42:45;95907.13;;;11.09;100.00
10093;BME280;5085;48.092;11.484;2023-02-18T07:45:11;95907.13;;;11.09;100.00
10093;BME280;5085;48.092;11.484;2023-02-18T07:47:37;95904.16;;;11.10;100.00
10093;BME280;5085;48.092;11.484;2023-02-18T07:50:04;95901.50;;;11.15;100.00
10093;BME280;5085;48.092;11.484;2023-02-18T07:52:31;95906.38;;;11.18;100.00
10093;BME280;5085;48.092;11.484;2023-02-18T07:54:57;95899.13;;;11.24;100.00
10093;BME280;5085;48.092;11.484;2023-02-18T07:57:23;95899.44;;;11.27;100.00
10093;BME280;5085;48.092;11.484;2023-02-18T07:59:49;95907.53;;;11.33;100.00
10093;BME280;5085;48.092;11.484;2023-02-18T08:02:20;95899.22;;;11.34;100.00
10093;BME280;5085;48.092;11.484;2023-02-18T08:04:47;95893.84;;;11.39;100.00
10093;BME280;5085;48.092;11.484;2023-02-18T08:07:15;95893.31;;;11.42;100.00
10093;BME280;5085;48.092;11.484;2023-02-18T08:09:42;95897.94;;;11.47;100.00
10093;BME280;5085;48.092;11.484;2023-02-18T08:12:08;95892.81;;;11.50;100.00
10093;BME280;5085;48.092;11.484;2023-02-18T08:14:34;95883.13;;;11.55;100.00
10093;BME280;5085;48.092;11.484;2023-02-18T08:17:00;95876.13;;;11.59;100.00
10093;BME280;5085;48.092;11.484;2023-02-18T08:19:26;95873.22;;;11.65;100.00
10093;BME280;5085;48.092;11.484;2023-02-18T08:21:52;95878.09;;;11.73;100.00
10093;BME280;5085;48.092;11.484;2023-02-18T08:24:18;95872.25;;;11.87;100.00
10093;BME280;5085;48.092;11.484;2023-02-18T08:26:44;95861.75;;;12.00;100.00
10093;BME280;5085;48.092;11.484;2023-02-18T08:29:10;95868.03;;;12.16;100.00
10093;BME280;5085;48.092;11.484;2023-02-18T08:31:36;95859.41;;;12.35;100.00
10093;BME280;5085;48.092;11.484;2023-02-18T08:34:02;95851.06;;;12.51;100.00
10093;BME280;5085;48.092;11.484;2023-02-18T08:36:29;95851.88;;;12.57;98.91
10093;BME280;5085;48.092;11.484;2023-02-18T08:38:56;95843.78;;;12.62;98.22
10093;BME280;5085;48.092;11.484;2023-02-18T08:41:22;95840.00;;;12.73;96.34
10093;BME280;5085;48.092;11.484;2023-02-18T08:43:48;95843.50;;;12.99;94.45
10093;BME280;5085;48.092;11.484;2023-02-18T08:46:15;95840.78;;;13.25;92.85
10093;BME280;5085;48.092;11.484;2023-02-18T08:48:42;95837.22;;;13.55;88.77
10093;BME280;5085;48.092;11.484;2023-02-18T08:51:14;95836.25;;;13.90;85.76
10093;BME280;5085;48.092;11.484;2023-02-18T08:53:40;95836.47;;;13.99;83.46
10093;BME280;5085;48.092;11.484;2023-02-18T08:56:08;95839.38;;;14.13;82.29
10093;BME280;5085;48.092;11.484;2023-02-18T08:58:35;95828.50;;;14.18;81.62
10093;BME280;5085;48.092;11.484;2023-02-18T09:01:04;95843.19;;;14.12;81.66
10093;BME280;5085;48.092;11.484;2023-02-18T09:03:32;95845.69;;;13.98;81.63
10093;BME280;5085;48.092;11.484;2023-02-18T09:05:58;95824.03;;;13.98;81.30
10093;BME280;5085;48.092;11.484;2023-02-18T09:08:25;95826.97;;;14.07;80.13
10093;BME280;5085;48.092;11.484;2023-02-18T09:10:56;95832.31;;;14.17;79.78
10093;BME280;5085;48.092;11.484;2023-02-18T09:13:22;95827.88;;;14.36;79.06
10093;BME280;5085;48.092;11.484;2023-02-18T09:16:00;95841.34;;;14.52;76.94
10093;BME280;5085;48.092;11.484;2023-02-18T09:18:26;95827.94;;;14.70;74.69
10093;BME280;5085;48.092;11.484;2023-02-18T09:20:55;95832.72;;;15.13;72.20
10093;BME280;5085;48.092;11.484;2023-02-18T09:23:21;95824.25;;;15.43;70.32
10093;BME280;5085;48.092;11.484;2023-02-18T09:25:47;95832.47;;;15.67;68.29
10093;BME280;5085;48.092;11.484;2023-02-18T09:28:13;95834.88;;;15.93;65.70
10093;BME280;5085;48.092;11.484;2023-02-18T09:30:39;95828.75;;;15.82;65.35
10093;BME280;5085;48.092;11.484;2023-02-18T09:33:05;95841.41;;;15.63;66.70
10093;BME280;5085;48.092;11.484;2023-02-18T09:35:31;95823.00;;;15.84;65.77
10093;BME280;5085;48.092;11.484;2023-02-18T09:37:57;95836.25;;;15.90;64.62
10093;BME280;5085;48.092;11.484;2023-02-18T09:40:26;95840.41;;;15.83;64.79
10093;BME280;5085;48.092;11.484;2023-02-18T09:42:55;95828.22;;;15.80;65.22
10093;BME280;5085;48.092;11.484;2023-02-18T09:45:22;95808.81;;;16.11;63.90
10093;BME280;5085;48.092;11.484;2023-02-18T09:47:49;95798.00;;;16.43;62.08
10093;BME280;5085;48.092;11.484;2023-02-18T09:50:23;95812.16;;;17.11;59.62
10093;BME280;5085;48.092;11.484;2023-02-18T09:52:51;95795.41;;;17.78;56.62
10093;BME280;5085;48.092;11.484;2023-02-18T09:57:48;95786.47;;;18.49;53.67
10093;BME280;5085;48.092;11.484;2023-02-18T10:00:19;95777.84;;;18.70;52.44
10093;BME280;5085;48.092;11.484;2023-02-18T10:03:07;95786.16;;;18.87;51.50
10093;BME280;5085;48.092;11.484;2023-02-18T10:05:40;95774.44;;;18.87;51.24
10093;BME280;5085;48.092;11.484;2023-02-18T10:08:20;95779.00;;;19.31;50.58
10093;BME280;5085;48.092;11.484;2023-02-18T10:10:47;95781.31;;;19.78;49.08
10093;BME280;5085;48.092;11.484;2023-02-18T10:13:20;95782.19;;;20.21;47.66
10093;BME280;5085;48.092;11.484;2023-02-18T10:15:47;95765.78;;;20.30;47.03
10093;BME280;5085;48.092;11.484;2023-02-18T10:18:25;95751.81;;;20.23;47.12
10093;BME280;5085;48.092;11.484;2023-02-18T10:20:57;95755.00;;;20.16;47.04
10093;BME280;5085;48.092;11.484;2023-02-18T10:23:26;95747.84;;;19.72;48.17
10093;BME280;5085;48.092;11.484;2023-02-18T10:25:54;95747.09;;;19.97;47.45
10093;BME280;5085;48.092;11.484;2023-02-18T10:28:23;95759.38;;;20.43;46.42
10093;BME280;5085;48.092;11.484;2023-02-18T10:30:58;95751.50;;;20.51;45.84
10093;BME280;5085;48.092;11.484;2023-02-18T10:36:06;95737.63;;;21.46;43.78
10093;BME280;5085;48.092;11.484;2023-02-18T10:38:48;95742.69;;;21.94;43.19
10093;BME280;5085;48.092;11.484;2023-02-18T10:44:16;95739.28;;;22.48;41.26
10093;BME280;5085;48.092;11.484;2023-02-18T10:47:05;95730.31;;;22.18;41.38
10093;BME280;5085;48.092;11.484;2023-02-18T10:49:52;95723.69;;;22.19;41.92
10093;BME280;5085;48.092;11.484;2023-02-18T10:52:20;95727.97;;;22.29;41.92
10093;BME280;5085;48.092;11.484;2023-02-18T10:54:52;95725.78;;;21.92;41.68
10093;BME280;5085;48.092;11.484;2023-02-18T10:57:23;95721.88;;;21.34;42.86
10093;BME280;5085;48.092;11.484;2023-02-18T10:59:55;95708.47;;;20.94;43.63
10093;BME280;5085;48.092;11.484;2023-02-18T11:02:24;95719.00;;;20.58;44.70
10093;BME280;5085;48.092;11.484;2023-02-18T11:04:51;95705.31;;;20.14;45.18
10093;BME280;5085;48.092;11.484;2023-02-18T11:07:20;95689.69;;;20.15;45.20
10093;BME280;5085;48.092;11.484;2023-02-18T11:12:25;95680.66;;;20.40;44.91
10093;BME280;5085;48.092;11.484;2023-02-18T11:17:35;95669.34;;;21.62;42.93
10093;BME280;5085;48.092;11.484;2023-02-18T11:20:34;95658.31;;;21.91;41.77
10093;BME280;5085;48.092;11.484;2023-02-18T11:23:19;95651.88;;;22.17;41.31
10093;BME280;5085;48.092;11.484;2023-02-18T11:26:04;95655.13;;;21.89;41.98
10093;BME280;5085;48.092;11.484;2023-02-18T11:28:45;95664.03;;;22.07;41.59
10093;BME280;5085;48.092;11.484;2023-02-18T11:31:26;95665.75;;;22.12;41.23
10093;BME280;5085;48.092;11.484;2023-02-18T11:33:58;95656.09;;;22.35;41.44
10093;BME280;5085;48.092;11.484;2023-02-18T11:36:34;95663.09;;;22.78;40.75
10093;BME280;5085;48.092;11.484;2023-02-18T11:39:05;95648.41;;;23.19;39.58
10093;BME280;5085;48.092;11.484;2023-02-18T11:41:46;95651.03;;;23.40;39.07
10093;BME280;5085;48.092;11.484;2023-02-18T11:44:37;95649.19;;;23.81;38.83
10093;BME280;5085;48.092;11.484;2023-02-18T11:49:41;95647.03;;;23.26;39.07
10093;BME280;5085;48.092;11.484;2023-02-18T11:52:32;95650.72;;;23.54;38.39
10093;BME280;5085;48.092;11.484;2023-02-18T11:55:00;95646.78;;;23.92;38.22
10093;BME280;5085;48.092;11.484;2023-02-18T11:57:27;95640.88;;;24.18;37.17
10093;BME280;5085;48.092;11.484;2023-02-18T11:59:54;95629.41;;;24.04;37.25
10093;BME280;5085;48.092;11.484;2023-02-18T12:02:31;95636.16;;;23.54;37.55
10093;BME280;5085;48.092;11.484;2023-02-18T12:05:18;95637.03;;;22.97;39.19
10093;BME280;5085;48.092;11.484;2023-02-18T12:07:48;95618.16;;;22.50;39.62
10093;BME280;5085;48.092;11.484;2023-02-18T12:10:22;95636.56;;;21.65;40.61
10093;BME280;5085;48.092;11.484;2023-02-18T12:13:04;95619.13;;;21.11;41.77
10093;BME280;5085;48.092;11.484;2023-02-18T12:16:10;95617.91;;;20.53;42.77
10093;BME280;5085;48.092;11.484;2023-02-18T12:18:44;95611.47;;;20.57;42.80
10093;BME280;5085;48.092;11.484;2023-02-18T12:21:28;95616.88;;;21.13;42.40
10093;BME280;5085;48.092;11.484;2023-02-18T12:24:33;95584.75;;;21.93;40.84
10093;BME280;5085;48.092;11.484;2023-02-18T12:32:39;95585.28;;;21.45;41.07
10093;BME280;5085;48.092;11.484;2023-02-18T12:35:36;95581.47;;;21.37;41.63
10093;BME280;5085;48.092;11.484;2023-02-18T12:41:03;95574.31;;;21.45;40.99
10093;BME280;5085;48.092;11.484;2023-02-18T12:47:03;95565.97;;;21.12;41.37
10093;BME280;5085;48.092;11.484;2023-02-18T12:49:51;95577.13;;;20.98;42.18
10093;BME280;5085;48.092;11.484;2023-02-18T12:52:35;95586.63;;;21.01;42.67
10093;BME280;5085;48.092;11.484;2023-02-18T12:55:41;95583.22;;;20.74;42.99
10093;BME280;5085;48.092;11.484;2023-02-18T13:10:11;95574.72;;;21.35;41.22
10093;BME280;5085;48.092;11.484;2023-02-18T13:12:52;95573.22;;;20.78;42.57
10093;BME280;5085;48.092;11.484;2023-02-18T13:15:36;95579.91;;;20.42;43.41
10093;BME280;5085;48.092;11.484;2023-02-18T13:18:09;95572.13;;;19.89;44.39
10093;BME280;5085;48.092;11.484;2023-02-18T13:20:56;95564.09;;;19.66;44.92
10093;BME280;5085;48.092;11.484;2023-02-18T13:23:27;95554.91;;;19.62;45.23
10093;BME280;5085;48.092;11.484;2023-02-18T13:25:59;95557.16;;;19.52;45.66
10093;BME280;5085;48.092;11.484;2023-02-18T13:28:33;95555.59;;;19.68;45.82
10093;BME280;5085;48.092;11.484;2023-02-18T13:34:14;95562.28;;;19.36;46.27
10093;BME280;5085;48.092;11.484;2023-02-18T13:37:09;95554.03;;;19.10;47.14
10093;BME280;5085;48.092;11.484;2023-02-18T13:39:46;95544.50;;;18.81;47.71
10093;BME280;5085;48.092;11.484;2023-02-18T13:47:41;95553.47;;;18.11;49.73
10093;BME280;5085;48.092;11.484;2023-02-18T13:50:30;95550.53;;;17.76;50.93
10093;BME280;5085;48.092;11.484;2023-02-18T13:58:12;95545.19;;;16.71;53.82
10093;BME280;5085;48.092;11.484;2023-02-18T14:00:41;95570.38;;;16.49;53.75
10093;BME280;5085;48.092;11.484;2023-02-18T14:05:58;95545.69;;;16.45;54.24
10093;BME280;5085;48.092;11.484;2023-02-18T14:13:41;95542.78;;;17.33;52.20
10093;BME280;5085;48.092;11.484;2023-02-18T14:16:09;95539.81;;;17.43;51.57
10093;BME280;5085;48.092;11.484;2023-02-18T14:33:51;95551.44;;;15.65;57.02
10093;BME280;5085;48.092;11.484;2023-02-18T14:36:31;95554.44;;;15.44;57.70
10093;BME280;5085;48.092;11.484;2023-02-18T14:42:26;95555.34;;;15.21;59.68
10093;BME280;5085;48.092;11.484;2023-02-18T14:47:33;95545.34;;;14.97;61.81
10093;BME280;5085;48.092;11.484;2023-02-18T14:50:13;95562.50;;;14.93;62.62
10093;BME280;5085;48.092;11.484;2023-02-18T14:52:42;95553.09;;;14.85;63.38
10093;BME280;5085;48.092;11.484;2023-02-18T14:55:20;95544.50;;;14.78;64.14
10093;BME280;5085;48.092;11.484;2023-02-18T14:57:51;95539.38;;;14.77;64.56
10093;BME280;5085;48.092;11.484;2023-02-18T15:00:21;95546.22;;;14.74;64.66
10093;BME280;5085;48.092;11.484;2023-02-18T15:02:51;95550.06;;;14.68;64.97
10093;BME280;5085;48.092;11.484;2023-02-18T15:05:37;95541.13;;;14.67;64.88